METAR Data
IDs: Format: Raw Decoded Include TAF

Data at: 2115 UTC 18 Apr 2021

K2J9 182055Z AUTO 00000KT 10SM OVC065 21/17 A2988 RMK AO2
K2J9 182035Z AUTO 25003KT 10SM FEW027 OVC070 21/16 A2987 RMK AO2
K2J9 182015Z AUTO 25004KT 10SM OVC075 22/16 A2986 RMK AO2
K2J9 181955Z AUTO 00000KT 10SM FEW060 OVC075 22/17 A2988 RMK AO2
K2J9 181935Z AUTO 00000KT 10SM BKN065 OVC075 21/17 A2988 RMK AO2
K2J9 181915Z AUTO 00000KT 10SM BKN075 OVC090 22/17 A2989 RMK AO2
K2J9 181855Z AUTO 24004KT 10SM FEW050 SCT065 OVC085 21/17 A2990 RMK AO2
K2J9 181835Z AUTO VRB04KT 10SM FEW021 BKN050 OVC090 21/17 A2991 RMK AO2 LTG DSNT E
K2J9 181815Z AUTO VRB03KT 10SM FEW023 BKN050 OVC095 20/18 A2992 RMK AO2
K2J9 181755Z AUTO 28004KT 10SM VCTS SCT075 BKN095 20/18 A2991 RMK AO2 LTG DSNT SE
K2J9 181735Z AUTO VRB04KT 9SM -DZ FEW019 FEW045 BKN075 20/18 A2991 RMK AO2
K2J9 181715Z AUTO 30007KT 9SM FEW004 BKN019 OVC080 21/17 A2992 RMK AO2
K2J9 181655Z AUTO VRB05KT 10SM BKN019 OVC055 21/17 A2993 RMK AO2
K2J9 181635Z AUTO 00000KT 10SM SCT019 BKN060 OVC110 21/17 A2994 RMK AO2
K2J9 181615Z AUTO 30007KT 10SM FEW015 BKN060 BKN110 21/17 A2995 RMK AO2
K2J9 181555Z AUTO VRB04KT 10SM FEW013 BKN060 BKN110 20/17 A2995 RMK AO2
K2J9 181535Z AUTO 27006KT 10SM FEW012 SCT025 BKN110 20/17 A2996 RMK AO2
K2J9 181515Z AUTO 31003KT 10SM FEW011 SCT018 BKN024 19/17 A2996 RMK AO2
K2J9 181455Z AUTO 27005KT 10SM FEW008 BKN019 OVC024 18/17 A2996 RMK AO2
K2J9 181435Z AUTO 24003KT 10SM SCT007 SCT013 OVC020 18/17 A2996 RMK AO2
K2J9 181415Z AUTO 21003KT 10SM SCT006 SCT010 BKN020 17/18 A2996 RMK AO2
K2J9 181355Z AUTO 24005KT 10SM SCT006 SCT010 SCT022 17/17 A2995 RMK AO2
K2J9 181335Z AUTO 00000KT 10SM SCT006 BKN010 BKN050 17/17 A2995 RMK AO2 LTG DSNT E
K2J9 181315Z AUTO VRB04KT 10SM BKN005 OVC009 17/17 A2995 RMK AO2
K2J9 181255Z AUTO 18004KT 10SM SCT005 SCT075 BKN110 17/17 A2995 RMK AO2
K2J9 181235Z AUTO 31004KT 9SM FEW035 FEW043 BKN075 17/17 A2996 RMK AO2
K2J9 181215Z AUTO 00000KT 4SM -RA FEW005 FEW026 BKN040 17/17 A2994 RMK AO2
K2J9 181155Z AUTO 00000KT 5SM -RA BKN006 BKN022 OVC026 16/17 A2994 RMK AO2
K2J9 181135Z AUTO 24004KT 4SM -RA BKN006 BKN026 OVC085 17/17 A2995 RMK AO2 LTG DSNT SE AND S
K2J9 181115Z AUTO 28006KT 5SM -RA SCT006 BKN034 OVC110 17/17 A2995 RMK AO2
K2J9 181055Z AUTO 00000KT 4SM -RA FEW004 OVC034 17/17 A2992 RMK AO2 LTG DSNT SE AND S
K2J9 181035Z AUTO 00000KT 3SM RA FEW005 BKN030 OVC049 17/17 A2992 RMK AO2 LTG DSNT SE
K2J9 181015Z AUTO 27004KT 8SM -DZ BKN003 BKN027 OVC065 17/17 A2991 RMK AO2
K2J9 180955Z AUTO 01003KT 4SM -RA OVC003 17/17 A2987 RMK AO2
K2J9 180935Z AUTO 00000KT 9SM OVC004 17/17 A2989 RMK AO2
K2J9 180915Z AUTO 00000KT 9SM OVC004 17/17 A2989 RMK AO2
K2J9 180855Z AUTO 00000KT 4SM -RA OVC005 17/17 A2990 RMK AO2
K2J9 180835Z AUTO 00000KT 8SM BKN005 BKN050 OVC080 17/17 A2991 RMK AO2
K2J9 180815Z AUTO 18004KT 9SM SCT006 BKN095 OVC120 17/17 A2991 RMK AO2
K2J9 180755Z AUTO 00000KT 10SM -DZ SCT004 BKN075 OVC120 17/17 A2991 RMK AO2
K2J9 180735Z AUTO 00000KT 7SM -DZ BKN005 BKN029 OVC100 17/17 A2991 RMK AO2
K2J9 180715Z AUTO 31004KT 8SM -DZ OVC006 17/17 A2991 RMK AO2
K2J9 180655Z AUTO VRB04KT 8SM OVC005 17/17 A2990 RMK AO2
K2J9 180635Z AUTO 34003KT 8SM OVC005 17/17 A2988 RMK AO2
K2J9 180615Z AUTO 00000KT 6SM BR OVC005 17/17 A2986 RMK AO2
K2J9 180555Z AUTO 00000KT 8SM OVC005 17/17 A2987 RMK AO2
K2J9 180535Z AUTO 00000KT 6SM -RA OVC006 17/17 A2990 RMK AO2
K2J9 180515Z AUTO 00000KT 10SM OVC005 17/17 A2993 RMK AO2
K2J9 180455Z AUTO VRB06KT 7SM -DZ OVC005 17/17 A2995 RMK AO2
K2J9 180435Z AUTO 31005KT 5SM -RA OVC005 18/18 A2995 RMK AO2
K2J9 180415Z AUTO 30007KT 4SM -RA BKN004 OVC011 18/18 A2995 RMK AO2
K2J9 180355Z AUTO 28006KT 7SM -DZ OVC004 18/18 A2994 RMK AO2 LTG DSNT SE-SW
K2J9 180335Z AUTO 00000KT 7SM BKN004 OVC011 18/18 A2993 RMK AO2 LTG DSNT S AND SW
K2J9 180315Z AUTO 21003KT 5SM -DZ OVC004 18/18 A2991 RMK AO2
K2J9 180255Z AUTO 00000KT 6SM -DZ OVC003 18/18 A2989 RMK AO2
K2J9 180235Z AUTO 05005KT 3SM -RA OVC003 18/18 A2986 RMK AO2 LTG DSNT SE-SW
K2J9 180215Z AUTO 00000KT 5SM -RA OVC003 18/18 A2991 RMK AO2 LTG DSNT E AND SE
K2J9 180155Z AUTO 30005KT 7SM OVC003 18/18 A2989 RMK AO2 LTG DSNT SE AND S
K2J9 180135Z AUTO 32005KT 5SM BR OVC003 18/18 A2988 RMK AO2
K2J9 180115Z AUTO 00000KT 4SM BR OVC003 18/18 A2986 RMK AO2 LTG DSNT S AND SW
K2J9 180055Z AUTO 16005KT 4SM -RA BKN004 BKN009 OVC048 18/18 A2986 RMK AO2 LTG DSNT E-SW
K2J9 180035Z AUTO 00000KT 4SM -RA SCT010 BKN031 OVC080 18/18 A2987 RMK AO2 LTG DSNT E AND SW
K2J9 180015Z AUTO 00000KT 4SM VCTS RA SCT007 BKN013 OVC036 18/18 A2989 RMK AO2 LTG DSNT E AND SE
K2J9 172355Z AUTO 30005KT 3SM RA OVC005 18/18 A2990 RMK AO2 LTG DSNT E-SW
K2J9 172335Z AUTO 00000KT 3SM -RA OVC004 18/18 A2989 RMK AO2 LTG DSNT E AND S
K2J9 172315Z AUTO 00000KT 3SM VCTS RA SCT004 BKN010 OVC041 19/19 A2988 RMK AO2 LTG DSNT E AND SW
K2J9 172255Z AUTO 00000KT 8SM FEW004 SCT025 BKN040 19/19 A2989 RMK AO2 LTG DSNT E-SW
K2J9 172235Z AUTO 00000KT 6SM VCTS DZ FEW003 SCT038 BKN100 19/19 A2987 RMK AO2 LTG DSNT E-SW
K2J9 172215Z AUTO 00000KT 2SM VCTS RA FEW004 BKN034 OVC075 19/19 A2987 RMK AO2 LTG DSNT ALQDS
K2J9 172155Z AUTO 00000KT 1 3/4SM -TSRA SCT005 OVC032 19/19 A2988 RMK AO2 LTG DSNT ALQDS
K2J9 172135Z AUTO 00000KT 1 1/2SM +TSRA FEW004 BKN032 OVC048 19/18 A2987 RMK AO2 LTG DSNT ALQDS
K2J9 172115Z AUTO 00000KT 10SM VCTS DZ BKN049 BKN065 BKN100 21/18 A2986 RMK AO2 LTG DSNT SW-NW
K2J9 172055Z AUTO 36004KT 10SM OVC048 21/17 A2987 RMK AO2 LTG DSNT SW AND W
K2J9 172035Z AUTO 30003KT 10SM BKN047 BKN070 OVC090 22/17 A2987 RMK AO2 LTG DSNT W
K2J9 172015Z AUTO 00000KT 10SM FEW026 BKN065 OVC085 22/17 A2986 RMK AO2 LTG DSNT W
K2J9 171955Z AUTO 00000KT 10SM FEW026 BKN060 OVC090 22/16 A2986 RMK AO2 LTG DSNT NW
K2J9 171935Z AUTO 00000KT 10SM BKN055 OVC080 22/16 A2986 RMK AO2
K2J9 171915Z AUTO 00000KT 10SM FEW025 BKN055 BKN080 22/16 A2987 RMK AO2
K2J9 171855Z AUTO 00000KT 10SM FEW048 BKN055 OVC075 22/16 A2987 RMK AO2 LTG DSNT W
K2J9 171835Z AUTO 00000KT 10SM FEW022 BKN049 OVC075 22/16 A2989 RMK AO2
K2J9 171815Z AUTO 00000KT 10SM SCT021 BKN050 BKN060 22/16 A2989 RMK AO2
K2J9 171755Z AUTO 00000KT 10SM BKN021 BKN060 OVC085 22/16 A2989 RMK AO2
K2J9 171735Z AUTO 00000KT 10SM SCT020 BKN060 OVC080 21/16 A2990 RMK AO2
K2J9 171715Z AUTO VRB04KT 10SM FEW018 SCT060 BKN080 21/16 A2990 RMK AO2
K2J9 171655Z AUTO 10003KT 10SM FEW050 FEW065 BKN080 21/17 A2990 RMK AO2
K2J9 171635Z AUTO 00000KT 10SM SCT050 BKN070 OVC080 19/16 A2991 RMK AO2
K2J9 171615Z AUTO 00000KT 10SM SCT023 SCT050 OVC070 19/16 A2992 RMK AO2
K2J9 171555Z AUTO 10004KT 10SM OVC023 19/16 A2991 RMK AO2
K2J9 171535Z AUTO VRB04KT 10SM OVC022 19/16 A2992 RMK AO2
K2J9 171515Z AUTO 07004KT 10SM OVC022 19/16 A2992 RMK AO2
K2J9 171455Z AUTO 05005KT 10SM BKN022 BKN037 18/16 A2993 RMK AO2
K2J9 171435Z AUTO 05005KT 9SM BKN021 BKN037 16/16 A2991 RMK AO2
K2J9 171415Z AUTO 01005KT 4SM BR FEW006 OVC017 16/16 A2993 RMK AO2
K2J9 171355Z AUTO VRB04G10KT 8SM FEW006 OVC015 16/16 A2992 RMK AO2
K2J9 171335Z AUTO VRB06KT 7SM FEW005 OVC016 16/16 A2992 RMK AO2
K2J9 171315Z AUTO VRB04KT 7SM -RA BKN017 OVC023 16/16 A2991 RMK AO2
K2J9 171255Z AUTO 36007KT 330V030 9SM SCT017 OVC022 16/16 A2991 RMK AO2
K2J9 171235Z AUTO 01005KT 7SM BKN016 OVC021 16/16 A2990 RMK AO2
K2J9 171215Z AUTO 00000KT 7SM BKN015 OVC022 15/15 A2988 RMK AO2
K2J9 171155Z AUTO 00000KT 8SM BKN015 OVC022 15/15 A2988 RMK AO2
K2J9 171135Z AUTO 00000KT 7SM OVC015 15/15 A2985 RMK AO2
K2J9 171115Z AUTO 06004KT 6SM BR BKN016 OVC120 15/15 A2984 RMK AO2
K2J9 171055Z AUTO 04003KT 3SM BR BKN015 BKN033 OVC110 15/15 A2984 RMK AO2
K2J9 171035Z AUTO 00000KT 5SM -DZ FEW005 SCT034 BKN070 15/15 A2984 RMK AO2
K2J9 171015Z AUTO 00000KT 3SM -RA FEW010 SCT032 BKN070 15/15 A2985 RMK AO2 LTG DSNT SE AND S
K2J9 170955Z AUTO 00000KT 6SM BR FEW042 SCT065 BKN075 15/15 A2986 RMK AO2 LTG DSNT SE
K2J9 170935Z AUTO 00000KT 8SM FEW050 BKN070 OVC100 15/15 A2984 RMK AO2